ROMMA est une association bénévole à but non lucratif. Votre soutien est indispensable : ADHERER à ROMMA ou FAIRE un DON

Crempigny-Bonneguête - (74, Haute-Savoie)

Albanais-Montagne des Princes (500 m)   Longitude: 05° 54' 5" E   Latitude: 45° 57' 0" N Station partenaire n°10
 

Détail journalier du     <<     >>

Température Precipitation Humidité Pression Vent Dir Rafale Dir. rafale Ensol. 20 cm au dessus du sol
Heure (°C) (mm) (%) (hPa) (km/h) (km/h) (min) (°C)
01:00 7.0066101713NO21NO06.1
02:00 6.7067101710NO18NO05.6
03:00 6.606610179NO15NO05.6
04:00 4.607310176NO13NO02.8
05:00 4.307510173NO6NO02.8
06:00 3.807710173ONO6ONO02.2
07:00 3.307910172ONO6ONO01.7
08:00 3.208010183ONO8ONO01.7
09:00 2.808510181ONO5ONO152.2
10:00 5.707910183NO15N507.8
11:00 8.306510188NO18NO6010.6
12:00 9.706110186NNO18O6012.2
13:00 9.806010179NO19NO4011.1
14:00 10.4056101710NO23NNO1512.2
15:00 11.6057101712O29O4514.4
16:00 11.4053101714NO27ONO3012.8
17:00 11.7054101613NO26NO5013.9
18:00 10.2053101712NO24NO2510.6
19:00 9.4054101715NO29NO409.4
20:00 7.5056101721NO34NO56.7
21:00 6.3060101823NO37NO05.6
22:00 5.3061101822ONO40ONO04.4
23:00 4.7063101817ONO32NO03.9
minuit 4.2066101715ONO26ONO03.3

Graphique du 13-04-2019

 

Serveur OMMA